sensor_id;sensor_type;location;lat;lon;timestamp;pressure;altitude;pressure_sealevel;temperature;humidity
10135;BME280;5107;48.850;8.924;2023-02-12T00:00:08;98698.69;;;4.88;83.16
10135;BME280;5107;48.850;8.924;2023-02-12T00:02:44;98701.06;;;4.77;84.12
10135;BME280;5107;48.850;8.924;2023-02-12T00:05:11;98705.00;;;4.68;84.73
10135;BME280;5107;48.850;8.924;2023-02-12T00:07:42;98703.91;;;4.72;85.35
10135;BME280;5107;48.850;8.924;2023-02-12T00:10:10;98706.34;;;4.75;86.00
10135;BME280;5107;48.850;8.924;2023-02-12T00:12:39;98702.81;;;4.76;85.40
10135;BME280;5107;48.850;8.924;2023-02-12T00:15:07;98701.72;;;4.80;85.28
10135;BME280;5107;48.850;8.924;2023-02-12T00:17:34;98705.94;;;4.83;84.77
10135;BME280;5107;48.850;8.924;2023-02-12T00:20:02;98709.94;;;4.88;84.09
10135;BME280;5107;48.850;8.924;2023-02-12T00:22:29;98712.06;;;4.97;84.29
10135;BME280;5107;48.850;8.924;2023-02-12T00:24:57;98707.09;;;5.09;84.09
10135;BME280;5107;48.850;8.924;2023-02-12T00:27:25;98718.94;;;5.14;83.86
10135;BME280;5107;48.850;8.924;2023-02-12T00:29:52;98714.56;;;5.15;83.42
10135;BME280;5107;48.850;8.924;2023-02-12T00:32:19;98711.78;;;5.18;82.62
10135;BME280;5107;48.850;8.924;2023-02-12T00:34:47;98706.91;;;5.12;83.10
10135;BME280;5107;48.850;8.924;2023-02-12T00:37:15;98707.66;;;5.14;83.61
10135;BME280;5107;48.850;8.924;2023-02-12T00:39:42;98714.06;;;5.08;83.43
10135;BME280;5107;48.850;8.924;2023-02-12T00:42:11;98709.09;;;5.04;84.00
10135;BME280;5107;48.850;8.924;2023-02-12T00:44:38;98718.81;;;5.02;83.85
10135;BME280;5107;48.850;8.924;2023-02-12T00:47:05;98721.22;;;5.05;83.53
10135;BME280;5107;48.850;8.924;2023-02-12T00:49:32;98725.09;;;5.13;82.97
10135;BME280;5107;48.850;8.924;2023-02-12T00:52:00;98724.91;;;5.16;82.24
10135;BME280;5107;48.850;8.924;2023-02-12T00:54:28;98735.94;;;5.21;82.04
10135;BME280;5107;48.850;8.924;2023-02-12T00:56:55;98728.94;;;5.22;81.25
10135;BME280;5107;48.850;8.924;2023-02-12T00:59:29;98725.44;;;5.07;82.16
10135;BME280;5107;48.850;8.924;2023-02-12T01:01:57;98729.81;;;5.07;82.78
10135;BME280;5107;48.850;8.924;2023-02-12T01:04:24;98732.75;;;5.01;83.72
10135;BME280;5107;48.850;8.924;2023-02-12T01:06:51;98722.84;;;4.91;83.21
10135;BME280;5107;48.850;8.924;2023-02-12T01:09:18;98736.78;;;4.90;84.26
10135;BME280;5107;48.850;8.924;2023-02-12T01:11:47;98737.44;;;4.94;84.30
10135;BME280;5107;48.850;8.924;2023-02-12T01:14:15;98734.34;;;4.87;84.53
10135;BME280;5107;48.850;8.924;2023-02-12T01:16:43;98730.97;;;4.85;84.97
10135;BME280;5107;48.850;8.924;2023-02-12T01:19:11;98733.69;;;4.84;84.72
10135;BME280;5107;48.850;8.924;2023-02-12T01:21:38;98734.69;;;4.81;84.81
10135;BME280;5107;48.850;8.924;2023-02-12T01:24:06;98733.34;;;4.74;84.70
10135;BME280;5107;48.850;8.924;2023-02-12T01:26:34;98730.88;;;4.71;85.56
10135;BME280;5107;48.850;8.924;2023-02-12T01:29:04;98729.47;;;4.66;84.65
10135;BME280;5107;48.850;8.924;2023-02-12T01:31:35;98730.31;;;4.66;85.18
10135;BME280;5107;48.850;8.924;2023-02-12T01:34:05;98736.94;;;4.72;85.33
10135;BME280;5107;48.850;8.924;2023-02-12T01:36:33;98735.09;;;4.74;85.36
10135;BME280;5107;48.850;8.924;2023-02-12T01:39:02;98735.69;;;4.79;84.95
10135;BME280;5107;48.850;8.924;2023-02-12T01:41:32;98732.00;;;4.83;85.13
10135;BME280;5107;48.850;8.924;2023-02-12T01:44:13;98732.00;;;4.83;85.08
10135;BME280;5107;48.850;8.924;2023-02-12T01:46:43;98731.50;;;4.76;83.94
10135;BME280;5107;48.850;8.924;2023-02-12T01:49:19;98728.78;;;4.78;84.41
10135;BME280;5107;48.850;8.924;2023-02-12T01:51:52;98726.94;;;4.80;84.73
10135;BME280;5107;48.850;8.924;2023-02-12T01:54:22;98723.75;;;4.75;83.67
10135;BME280;5107;48.850;8.924;2023-02-12T01:56:51;98722.91;;;4.74;85.46
10135;BME280;5107;48.850;8.924;2023-02-12T01:59:19;98725.53;;;4.74;85.15
10135;BME280;5107;48.850;8.924;2023-02-12T02:01:46;98727.28;;;4.74;85.69
10135;BME280;5107;48.850;8.924;2023-02-12T02:04:19;98724.00;;;4.70;84.78
10135;BME280;5107;48.850;8.924;2023-02-12T02:06:52;98724.59;;;4.75;84.63
10135;BME280;5107;48.850;8.924;2023-02-12T02:09:23;98718.53;;;4.75;84.31
10135;BME280;5107;48.850;8.924;2023-02-12T02:11:54;98713.81;;;4.81;85.16
10135;BME280;5107;48.850;8.924;2023-02-12T02:14:39;98713.25;;;4.76;84.41
10135;BME280;5107;48.850;8.924;2023-02-12T02:17:32;98715.25;;;4.71;84.37
10135;BME280;5107;48.850;8.924;2023-02-12T02:20:41;98714.66;;;4.66;83.88
10135;BME280;5107;48.850;8.924;2023-02-12T02:23:39;98712.97;;;4.65;84.49
10135;BME280;5107;48.850;8.924;2023-02-12T02:27:01;98706.09;;;4.64;85.52
10135;BME280;5107;48.850;8.924;2023-02-12T02:30:09;98703.31;;;4.67;85.10
10135;BME280;5107;48.850;8.924;2023-02-12T02:32:43;98702.22;;;4.71;84.24
10135;BME280;5107;48.850;8.924;2023-02-12T02:35:23;98704.06;;;4.69;84.72
10135;BME280;5107;48.850;8.924;2023-02-12T02:38:02;98698.09;;;4.67;83.68
10135;BME280;5107;48.850;8.924;2023-02-12T02:40:39;98692.28;;;4.62;84.01
10135;BME280;5107;48.850;8.924;2023-02-12T02:43:14;98694.22;;;4.58;84.12
10135;BME280;5107;48.850;8.924;2023-02-12T02:45:47;98696.84;;;4.58;83.88
10135;BME280;5107;48.850;8.924;2023-02-12T02:48:20;98689.03;;;4.58;84.20
10135;BME280;5107;48.850;8.924;2023-02-12T02:50:54;98690.78;;;4.58;84.90
10135;BME280;5107;48.850;8.924;2023-02-12T02:53:27;98691.44;;;4.62;84.40
10135;BME280;5107;48.850;8.924;2023-02-12T02:56:00;98691.72;;;4.57;84.44
10135;BME280;5107;48.850;8.924;2023-02-12T02:58:31;98694.38;;;4.55;84.13
10135;BME280;5107;48.850;8.924;2023-02-12T03:01:06;98700.44;;;4.56;84.31
10135;BME280;5107;48.850;8.924;2023-02-12T03:03:40;98697.84;;;4.56;84.22
10135;BME280;5107;48.850;8.924;2023-02-12T03:06:12;98688.34;;;4.55;84.26
10135;BME280;5107;48.850;8.924;2023-02-12T03:08:48;98687.41;;;4.56;84.23
10135;BME280;5107;48.850;8.924;2023-02-12T03:11:21;98691.78;;;4.55;83.65
10135;BME280;5107;48.850;8.924;2023-02-12T03:13:56;98689.94;;;4.57;84.47
10135;BME280;5107;48.850;8.924;2023-02-12T03:16:29;98692.88;;;4.51;84.05
10135;BME280;5107;48.850;8.924;2023-02-12T03:19:03;98694.72;;;4.49;84.44
10135;BME280;5107;48.850;8.924;2023-02-12T03:21:38;98691.28;;;4.49;84.64
10135;BME280;5107;48.850;8.924;2023-02-12T03:24:11;98694.72;;;4.49;84.88
10135;BME280;5107;48.850;8.924;2023-02-12T03:26:45;98702.53;;;4.49;84.69
10135;BME280;5107;48.850;8.924;2023-02-12T03:29:13;98696.50;;;4.49;84.57
10135;BME280;5107;48.850;8.924;2023-02-12T03:31:54;98705.22;;;4.48;84.33
10135;BME280;5107;48.850;8.924;2023-02-12T03:34:40;98700.53;;;4.54;84.85
10135;BME280;5107;48.850;8.924;2023-02-12T03:37:23;98701.13;;;4.60;84.96
10135;BME280;5107;48.850;8.924;2023-02-12T03:40:07;98702.06;;;4.58;83.82
10135;BME280;5107;48.850;8.924;2023-02-12T03:42:44;98703.75;;;4.60;84.28
10135;BME280;5107;48.850;8.924;2023-02-12T03:45:25;98695.91;;;4.60;84.09
10135;BME280;5107;48.850;8.924;2023-02-12T03:48:01;98697.00;;;4.55;84.00
10135;BME280;5107;48.850;8.924;2023-02-12T03:50:37;98696.75;;;4.60;84.48
10135;BME280;5107;48.850;8.924;2023-02-12T03:53:06;98701.28;;;4.56;84.76
10135;BME280;5107;48.850;8.924;2023-02-12T03:55:36;98699.59;;;4.55;84.39
10135;BME280;5107;48.850;8.924;2023-02-12T03:58:09;98698.09;;;4.51;84.43
10135;BME280;5107;48.850;8.924;2023-02-12T04:00:39;98698.00;;;4.53;84.96
10135;BME280;5107;48.850;8.924;2023-02-12T04:03:07;98695.50;;;4.51;85.01
10135;BME280;5107;48.850;8.924;2023-02-12T04:05:35;98700.59;;;4.53;84.59
10135;BME280;5107;48.850;8.924;2023-02-12T04:08:06;98704.75;;;4.57;85.36
10135;BME280;5107;48.850;8.924;2023-02-12T04:10:45;98701.38;;;4.55;84.43
10135;BME280;5107;48.850;8.924;2023-02-12T04:13:23;98702.06;;;4.58;84.97
10135;BME280;5107;48.850;8.924;2023-02-12T04:16:05;98705.41;;;4.61;84.78
10135;BME280;5107;48.850;8.924;2023-02-12T04:18:40;98703.97;;;4.71;85.04
10135;BME280;5107;48.850;8.924;2023-02-12T04:21:17;98714.31;;;4.72;84.63
10135;BME280;5107;48.850;8.924;2023-02-12T04:23:58;98703.97;;;4.71;84.78
10135;BME280;5107;48.850;8.924;2023-02-12T04:26:36;98715.94;;;4.75;85.36
10135;BME280;5107;48.850;8.924;2023-02-12T04:29:15;98713.81;;;4.66;84.04
10135;BME280;5107;48.850;8.924;2023-02-12T04:31:48;98716.50;;;4.64;84.93
10135;BME280;5107;48.850;8.924;2023-02-12T04:34:25;98716.09;;;4.56;85.02
10135;BME280;5107;48.850;8.924;2023-02-12T04:36:58;98720.72;;;4.51;84.92
10135;BME280;5107;48.850;8.924;2023-02-12T04:39:29;98721.72;;;4.48;86.03
10135;BME280;5107;48.850;8.924;2023-02-12T04:41:58;98722.69;;;4.46;85.88
10135;BME280;5107;48.850;8.924;2023-02-12T04:44:29;98726.16;;;4.46;86.65
10135;BME280;5107;48.850;8.924;2023-02-12T04:46:57;98723.53;;;4.46;86.79
10135;BME280;5107;48.850;8.924;2023-02-12T04:49:26;98723.31;;;4.51;86.48
10135;BME280;5107;48.850;8.924;2023-02-12T04:51:54;98723.75;;;4.59;86.12
10135;BME280;5107;48.850;8.924;2023-02-12T04:54:21;98722.72;;;4.62;86.30
10135;BME280;5107;48.850;8.924;2023-02-12T04:56:49;98727.78;;;4.65;85.47
10135;BME280;5107;48.850;8.924;2023-02-12T04:59:17;98727.09;;;4.61;86.04
10135;BME280;5107;48.850;8.924;2023-02-12T05:01:44;98724.91;;;4.69;85.64
10135;BME280;5107;48.850;8.924;2023-02-12T05:04:15;98723.75;;;4.75;85.26
10135;BME280;5107;48.850;8.924;2023-02-12T05:06:44;98726.94;;;4.80;85.07
10135;BME280;5107;48.850;8.924;2023-02-12T05:09:15;98725.59;;;4.88;84.23
10135;BME280;5107;48.850;8.924;2023-02-12T05:11:42;98726.38;;;4.90;83.07
10135;BME280;5107;48.850;8.924;2023-02-12T05:14:09;98722.72;;;4.77;84.05
10135;BME280;5107;48.850;8.924;2023-02-12T05:16:36;98720.72;;;4.67;84.35
10135;BME280;5107;48.850;8.924;2023-02-12T05:19:03;98715.59;;;4.65;85.02
10135;BME280;5107;48.850;8.924;2023-02-12T05:21:31;98722.31;;;4.69;85.26
10135;BME280;5107;48.850;8.924;2023-02-12T05:24:00;98724.91;;;4.69;84.97
10135;BME280;5107;48.850;8.924;2023-02-12T05:26:27;98727.84;;;4.63;85.29
10135;BME280;5107;48.850;8.924;2023-02-12T05:28:54;98725.50;;;4.58;85.26
10135;BME280;5107;48.850;8.924;2023-02-12T05:31:21;98723.81;;;4.57;85.98
10135;BME280;5107;48.850;8.924;2023-02-12T05:33:49;98720.72;;;4.51;85.53
10135;BME280;5107;48.850;8.924;2023-02-12T05:36:19;98726.06;;;4.48;85.97
10135;BME280;5107;48.850;8.924;2023-02-12T05:38:46;98727.34;;;4.41;86.30
10135;BME280;5107;48.850;8.924;2023-02-12T05:41:18;98726.41;;;4.42;86.93
10135;BME280;5107;48.850;8.924;2023-02-12T05:43:46;98727.34;;;4.41;86.88
10135;BME280;5107;48.850;8.924;2023-02-12T05:46:13;98729.94;;;4.41;87.81
10135;BME280;5107;48.850;8.924;2023-02-12T05:48:40;98728.09;;;4.43;86.77
10135;BME280;5107;48.850;8.924;2023-02-12T05:51:10;98734.47;;;4.53;86.90
10135;BME280;5107;48.850;8.924;2023-02-12T05:53:39;98726.06;;;4.48;86.11
10135;BME280;5107;48.850;8.924;2023-02-12T05:56:09;98733.38;;;4.41;85.67
10135;BME280;5107;48.850;8.924;2023-02-12T05:58:37;98734.88;;;4.30;86.46
10135;BME280;5107;48.850;8.924;2023-02-12T06:01:10;98733.44;;;4.24;87.46
10135;BME280;5107;48.850;8.924;2023-02-12T06:03:38;98734.41;;;4.22;87.26
10135;BME280;5107;48.850;8.924;2023-02-12T06:06:05;98730.06;;;4.22;88.11
10135;BME280;5107;48.850;8.924;2023-02-12T06:08:33;98720.88;;;4.15;87.39
10135;BME280;5107;48.850;8.924;2023-02-12T06:11:01;98729.28;;;4.20;87.80
10135;BME280;5107;48.850;8.924;2023-02-12T06:13:29;98727.22;;;4.27;87.77
10135;BME280;5107;48.850;8.924;2023-02-12T06:15:59;98720.06;;;4.30;87.59
10135;BME280;5107;48.850;8.924;2023-02-12T06:18:27;98715.56;;;4.34;88.01
10135;BME280;5107;48.850;8.924;2023-02-12T06:20:54;98721.28;;;4.40;87.72
10135;BME280;5107;48.850;8.924;2023-02-12T06:23:22;98715.38;;;4.37;86.58
10135;BME280;5107;48.850;8.924;2023-02-12T06:25:50;98728.59;;;4.34;86.89
10135;BME280;5107;48.850;8.924;2023-02-12T06:28:21;98726.38;;;4.26;86.78
10135;BME280;5107;48.850;8.924;2023-02-12T06:30:48;98730.13;;;4.20;87.00
10135;BME280;5107;48.850;8.924;2023-02-12T06:33:16;98730.91;;;4.23;88.05
10135;BME280;5107;48.850;8.924;2023-02-12T06:35:43;98737.03;;;4.22;87.88
10135;BME280;5107;48.850;8.924;2023-02-12T06:38:12;98746.06;;;4.32;87.72
10135;BME280;5107;48.850;8.924;2023-02-12T06:40:42;98746.66;;;4.52;87.35
10135;BME280;5107;48.850;8.924;2023-02-12T06:43:09;98743.22;;;4.52;87.77
10135;BME280;5107;48.850;8.924;2023-02-12T06:45:36;98750.13;;;4.53;87.26
10135;BME280;5107;48.850;8.924;2023-02-12T06:48:03;98749.06;;;4.57;86.92
10135;BME280;5107;48.850;8.924;2023-02-12T06:50:32;98748.13;;;4.58;87.70
10135;BME280;5107;48.850;8.924;2023-02-12T06:52:59;98747.09;;;4.61;87.54
10135;BME280;5107;48.850;8.924;2023-02-12T06:55:26;98754.19;;;4.58;86.97
10135;BME280;5107;48.850;8.924;2023-02-12T06:57:53;98754.25;;;4.57;87.30
10135;BME280;5107;48.850;8.924;2023-02-12T07:00:21;98755.03;;;4.59;87.73
10135;BME280;5107;48.850;8.924;2023-02-12T07:02:53;98766.97;;;4.63;88.75
10135;BME280;5107;48.850;8.924;2023-02-12T07:05:20;98766.88;;;4.65;88.50
10135;BME280;5107;48.850;8.924;2023-02-12T07:07:49;98768.50;;;4.67;88.41
10135;BME280;5107;48.850;8.924;2023-02-12T07:10:16;98765.28;;;4.78;88.15
10135;BME280;5107;48.850;8.924;2023-02-12T07:12:44;98763.94;;;4.86;87.55
10135;BME280;5107;48.850;8.924;2023-02-12T07:15:11;98767.16;;;4.91;87.13
10135;BME280;5107;48.850;8.924;2023-02-12T07:17:38;98769.50;;;4.80;86.98
10135;BME280;5107;48.850;8.924;2023-02-12T07:20:07;98774.88;;;4.77;87.60
10135;BME280;5107;48.850;8.924;2023-02-12T07:22:35;98771.03;;;4.84;88.07
10135;BME280;5107;48.850;8.924;2023-02-12T07:25:04;98761.75;;;4.79;88.32
10135;BME280;5107;48.850;8.924;2023-02-12T07:27:34;98777.91;;;4.85;88.04
10135;BME280;5107;48.850;8.924;2023-02-12T07:30:02;98769.34;;;4.83;88.32
10135;BME280;5107;48.850;8.924;2023-02-12T07:32:31;98769.16;;;4.86;88.36
10135;BME280;5107;48.850;8.924;2023-02-12T07:34:58;98764.22;;;4.82;88.12
10135;BME280;5107;48.850;8.924;2023-02-12T07:37:25;98768.09;;;4.90;88.45
10135;BME280;5107;48.850;8.924;2023-02-12T07:39:52;98767.59;;;5.00;88.78
10135;BME280;5107;48.850;8.924;2023-02-12T07:42:20;98761.09;;;5.07;88.77
10135;BME280;5107;48.850;8.924;2023-02-12T07:44:49;98762.44;;;5.14;88.32
10135;BME280;5107;48.850;8.924;2023-02-12T07:47:16;98766.72;;;5.30;88.59
10135;BME280;5107;48.850;8.924;2023-02-12T07:49:43;98764.78;;;5.50;87.06
10135;BME280;5107;48.850;8.924;2023-02-12T07:52:10;98762.97;;;5.66;86.84
10135;BME280;5107;48.850;8.924;2023-02-12T07:54:37;98758.00;;;5.61;84.83
10135;BME280;5107;48.850;8.924;2023-02-12T07:57:04;98757.66;;;5.67;85.27
10135;BME280;5107;48.850;8.924;2023-02-12T07:59:33;98759.00;;;5.75;84.98
10135;BME280;5107;48.850;8.924;2023-02-12T08:02:00;98763.75;;;5.82;84.05
10135;BME280;5107;48.850;8.924;2023-02-12T08:04:27;98757.63;;;5.83;83.46
10135;BME280;5107;48.850;8.924;2023-02-12T08:06:55;98760.84;;;5.72;83.58
10135;BME280;5107;48.850;8.924;2023-02-12T08:09:24;98755.38;;;5.77;83.86
10135;BME280;5107;48.850;8.924;2023-02-12T08:11:51;98752.47;;;5.82;83.86
10135;BME280;5107;48.850;8.924;2023-02-12T08:14:20;98750.75;;;5.96;82.83
10135;BME280;5107;48.850;8.924;2023-02-12T08:16:50;98747.81;;;6.17;81.81
10135;BME280;5107;48.850;8.924;2023-02-12T08:19:18;98747.44;;;6.23;81.31
10135;BME280;5107;48.850;8.924;2023-02-12T08:21:45;98741.75;;;6.30;81.17
10135;BME280;5107;48.850;8.924;2023-02-12T08:24:14;98750.56;;;6.43;80.76
10135;BME280;5107;48.850;8.924;2023-02-12T08:26:41;98748.66;;;6.45;81.27
10135;BME280;5107;48.850;8.924;2023-02-12T08:29:12;98748.84;;;6.28;81.33
10135;BME280;5107;48.850;8.924;2023-02-12T08:31:42;98750.34;;;6.46;81.05
10135;BME280;5107;48.850;8.924;2023-02-12T08:34:18;98757.25;;;6.47;80.89
10135;BME280;5107;48.850;8.924;2023-02-12T08:36:47;98750.72;;;6.40;81.09
10135;BME280;5107;48.850;8.924;2023-02-12T08:39:15;98759.03;;;6.33;81.11
10135;BME280;5107;48.850;8.924;2023-02-12T08:41:43;98764.34;;;6.31;81.48
10135;BME280;5107;48.850;8.924;2023-02-12T08:44:11;98766.66;;;6.22;81.73
10135;BME280;5107;48.850;8.924;2023-02-12T08:46:43;98761.53;;;6.20;82.16
10135;BME280;5107;48.850;8.924;2023-02-12T08:49:13;98768.47;;;6.35;81.71
10135;BME280;5107;48.850;8.924;2023-02-12T08:51:44;98764.34;;;6.31;81.60
10135;BME280;5107;48.850;8.924;2023-02-12T08:54:15;98771.56;;;6.42;81.57
10135;BME280;5107;48.850;8.924;2023-02-12T08:56:42;98765.88;;;6.35;81.02
10135;BME280;5107;48.850;8.924;2023-02-12T08:59:11;98768.66;;;6.46;81.18
10135;BME280;5107;48.850;8.924;2023-02-12T09:01:39;98769.78;;;6.42;80.65
10135;BME280;5107;48.850;8.924;2023-02-12T09:04:16;98760.91;;;6.45;80.49
10135;BME280;5107;48.850;8.924;2023-02-12T09:06:46;98773.72;;;6.50;80.44
10135;BME280;5107;48.850;8.924;2023-02-12T09:09:13;98765.50;;;6.41;80.27
10135;BME280;5107;48.850;8.924;2023-02-12T09:11:41;98764.19;;;6.34;80.83
10135;BME280;5107;48.850;8.924;2023-02-12T09:14:14;98774.63;;;6.34;80.92
10135;BME280;5107;48.850;8.924;2023-02-12T09:16:43;98777.81;;;6.39;81.05
10135;BME280;5107;48.850;8.924;2023-02-12T09:19:12;98777.53;;;6.44;81.34
10135;BME280;5107;48.850;8.924;2023-02-12T09:21:39;98773.03;;;6.46;80.56
10135;BME280;5107;48.850;8.924;2023-02-12T09:24:09;98773.72;;;6.50;80.77
10135;BME280;5107;48.850;8.924;2023-02-12T09:26:38;98782.09;;;6.55;80.84
10135;BME280;5107;48.850;8.924;2023-02-12T09:29:05;98780.72;;;6.49;80.53
10135;BME280;5107;48.850;8.924;2023-02-12T09:31:32;98777.16;;;6.50;81.04
10135;BME280;5107;48.850;8.924;2023-02-12T09:34:01;98780.97;;;6.44;80.66
10135;BME280;5107;48.850;8.924;2023-02-12T09:36:29;98777.88;;;6.38;80.46
10135;BME280;5107;48.850;8.924;2023-02-12T09:38:57;98786.41;;;6.27;80.99
10135;BME280;5107;48.850;8.924;2023-02-12T09:42:03;98784.13;;;6.21;81.85
10135;BME280;5107;48.850;8.924;2023-02-12T09:44:41;98786.19;;;6.30;81.20
10135;BME280;5107;48.850;8.924;2023-02-12T09:47:16;98784.53;;;6.43;81.06
10135;BME280;5107;48.850;8.924;2023-02-12T09:50:11;98787.72;;;6.48;80.40
10135;BME280;5107;48.850;8.924;2023-02-12T09:52:41;98782.47;;;6.48;80.02
10135;BME280;5107;48.850;8.924;2023-02-12T09:55:13;98782.84;;;6.57;79.91
10135;BME280;5107;48.850;8.924;2023-02-12T09:57:43;98779.88;;;6.48;79.81
10135;BME280;5107;48.850;8.924;2023-02-12T10:00:15;98786.59;;;6.53;79.58
10135;BME280;5107;48.850;8.924;2023-02-12T10:02:44;98784.16;;;6.64;79.78
10135;BME280;5107;48.850;8.924;2023-02-12T10:05:16;98776.13;;;6.67;79.35
10135;BME280;5107;48.850;8.924;2023-02-12T10:08:01;98774.63;;;6.63;79.73
10135;BME280;5107;48.850;8.924;2023-02-12T10:10:46;98772.13;;;6.75;79.91
10135;BME280;5107;48.850;8.924;2023-02-12T10:13:27;98780.59;;;6.79;79.63
10135;BME280;5107;48.850;8.924;2023-02-12T10:16:09;98774.16;;;6.84;79.36
10135;BME280;5107;48.850;8.924;2023-02-12T10:18:57;98782.84;;;6.99;79.18
10135;BME280;5107;48.850;8.924;2023-02-12T10:21:39;98778.13;;;7.04;78.88
10135;BME280;5107;48.850;8.924;2023-02-12T10:24:36;98766.09;;;7.02;79.15
10135;BME280;5107;48.850;8.924;2023-02-12T10:27:12;98772.06;;;7.18;79.32
10135;BME280;5107;48.850;8.924;2023-02-12T10:29:44;98780.84;;;7.17;78.61
10135;BME280;5107;48.850;8.924;2023-02-12T10:32:23;98773.03;;;7.30;77.92
10135;BME280;5107;48.850;8.924;2023-02-12T10:34:52;98773.88;;;7.30;77.64
10135;BME280;5107;48.850;8.924;2023-02-12T10:37:27;98772.69;;;7.21;77.76
10135;BME280;5107;48.850;8.924;2023-02-12T10:40:04;98771.91;;;7.34;77.65
10135;BME280;5107;48.850;8.924;2023-02-12T10:42:37;98766.59;;;7.35;78.02
10135;BME280;5107;48.850;8.924;2023-02-12T10:45:13;98775.28;;;7.36;77.47
10135;BME280;5107;48.850;8.924;2023-02-12T10:47:41;98768.28;;;7.36;77.17
10135;BME280;5107;48.850;8.924;2023-02-12T10:50:23;98766.28;;;7.40;77.28
10135;BME280;5107;48.850;8.924;2023-02-12T10:52:56;98768.16;;;7.38;77.69
10135;BME280;5107;48.850;8.924;2023-02-12T10:55:28;98767.38;;;7.50;77.19
10135;BME280;5107;48.850;8.924;2023-02-12T10:57:57;98771.22;;;7.44;76.69
10135;BME280;5107;48.850;8.924;2023-02-12T11:00:30;98764.34;;;7.29;77.57
10135;BME280;5107;48.850;8.924;2023-02-12T11:03:17;98763.13;;;7.20;77.83
10135;BME280;5107;48.850;8.924;2023-02-12T11:05:46;98749.16;;;7.07;78.35
10135;BME280;5107;48.850;8.924;2023-02-12T11:08:33;98750.44;;;7.14;78.88
10135;BME280;5107;48.850;8.924;2023-02-12T11:11:09;98751.47;;;7.12;78.53
10135;BME280;5107;48.850;8.924;2023-02-12T11:13:39;98751.69;;;7.09;78.86
10135;BME280;5107;48.850;8.924;2023-02-12T11:16:09;98757.38;;;7.15;79.16
10135;BME280;5107;48.850;8.924;2023-02-12T11:18:37;98752.13;;;7.15;79.53
10135;BME280;5107;48.850;8.924;2023-02-12T11:21:06;98743.63;;;7.12;78.87
10135;BME280;5107;48.850;8.924;2023-02-12T11:23:36;98747.31;;;7.09;78.93
10135;BME280;5107;48.850;8.924;2023-02-12T11:26:06;98746.91;;;7.15;78.57
10135;BME280;5107;48.850;8.924;2023-02-12T11:28:53;98738.03;;;7.18;78.62
10135;BME280;5107;48.850;8.924;2023-02-12T11:31:24;98749.69;;;7.12;78.99
10135;BME280;5107;48.850;8.924;2023-02-12T11:34:14;98738.88;;;7.04;78.81
10135;BME280;5107;48.850;8.924;2023-02-12T11:36:43;98743.00;;;7.08;78.66
10135;BME280;5107;48.850;8.924;2023-02-12T11:39:20;98744.19;;;7.17;78.73
10135;BME280;5107;48.850;8.924;2023-02-12T11:41:55;98732.88;;;7.16;78.37
10135;BME280;5107;48.850;8.924;2023-02-12T11:44:26;98737.31;;;7.29;78.70
10135;BME280;5107;48.850;8.924;2023-02-12T11:46:58;98732.63;;;7.34;78.21
10135;BME280;5107;48.850;8.924;2023-02-12T11:49:29;98740.91;;;7.28;78.71
10135;BME280;5107;48.850;8.924;2023-02-12T11:51:59;98747.41;;;7.35;78.83
10135;BME280;5107;48.850;8.924;2023-02-12T11:54:38;98753.38;;;7.37;78.63
10135;BME280;5107;48.850;8.924;2023-02-12T11:57:11;98744.09;;;7.18;78.92
10135;BME280;5107;48.850;8.924;2023-02-12T12:00:00;98743.56;;;6.99;79.97
10135;BME280;5107;48.850;8.924;2023-02-12T12:02:33;98739.72;;;7.05;80.16
10135;BME280;5107;48.850;8.924;2023-02-12T12:05:10;98738.97;;;7.17;79.71
10135;BME280;5107;48.850;8.924;2023-02-12T12:07:44;98737.53;;;7.26;78.94
10135;BME280;5107;48.850;8.924;2023-02-12T12:10:19;98727.34;;;7.48;78.69
10135;BME280;5107;48.850;8.924;2023-02-12T12:12:55;98726.72;;;7.57;77.45
10135;BME280;5107;48.850;8.924;2023-02-12T12:15:27;98728.56;;;7.69;77.38
10135;BME280;5107;48.850;8.924;2023-02-12T12:18:23;98726.03;;;7.68;76.96
10135;BME280;5107;48.850;8.924;2023-02-12T12:21:15;98720.19;;;7.77;76.60
10135;BME280;5107;48.850;8.924;2023-02-12T12:23:50;98719.03;;;7.81;76.88
10135;BME280;5107;48.850;8.924;2023-02-12T12:26:23;98728.47;;;7.83;76.38
10135;BME280;5107;48.850;8.924;2023-02-12T12:28:56;98719.66;;;7.84;76.22
10135;BME280;5107;48.850;8.924;2023-02-12T12:31:32;98719.06;;;7.93;76.05
10135;BME280;5107;48.850;8.924;2023-02-12T12:34:07;98723.47;;;7.93;76.43
10135;BME280;5107;48.850;8.924;2023-02-12T12:37:16;98717.06;;;7.97;75.89
10135;BME280;5107;48.850;8.924;2023-02-12T12:40:06;98710.88;;;7.85;76.34
10135;BME280;5107;48.850;8.924;2023-02-12T12:42:58;98713.59;;;7.96;76.54
10135;BME280;5107;48.850;8.924;2023-02-12T12:46:24;98715.28;;;8.10;75.54
10135;BME280;5107;48.850;8.924;2023-02-12T12:49:19;98706.81;;;8.19;75.32
10135;BME280;5107;48.850;8.924;2023-02-12T12:52:15;98705.03;;;8.32;74.92
10135;BME280;5107;48.850;8.924;2023-02-12T12:55:06;98696.44;;;8.43;74.56
10135;BME280;5107;48.850;8.924;2023-02-12T12:57:48;98690.66;;;8.51;74.26
10135;BME280;5107;48.850;8.924;2023-02-12T13:00:44;98685.28;;;8.52;74.18
10135;BME280;5107;48.850;8.924;2023-02-12T13:03:54;98680.84;;;8.65;74.06
10135;BME280;5107;48.850;8.924;2023-02-12T13:06:37;98670.78;;;8.96;73.32
10135;BME280;5107;48.850;8.924;2023-02-12T13:09:47;98669.44;;;8.90;72.43
10135;BME280;5107;48.850;8.924;2023-02-12T13:12:45;98681.97;;;8.74;73.48
10135;BME280;5107;48.850;8.924;2023-02-12T13:15:24;98673.44;;;8.83;73.92
10135;BME280;5107;48.850;8.924;2023-02-12T13:18:00;98680.03;;;8.89;73.21
10135;BME280;5107;48.850;8.924;2023-02-12T13:20:41;98666.53;;;9.06;72.61
10135;BME280;5107;48.850;8.924;2023-02-12T13:23:18;98668.94;;;9.09;72.53
10135;BME280;5107;48.850;8.924;2023-02-12T13:25:57;98668.59;;;9.13;72.50
10135;BME280;5107;48.850;8.924;2023-02-12T13:28:33;98662.38;;;9.03;72.44
10135;BME280;5107;48.850;8.924;2023-02-12T13:31:06;98663.03;;;9.18;72.21
10135;BME280;5107;48.850;8.924;2023-02-12T13:33:40;98660.09;;;9.34;71.89
10135;BME280;5107;48.850;8.924;2023-02-12T13:36:12;98656.03;;;9.65;70.45
10135;BME280;5107;48.850;8.924;2023-02-12T13:38:47;98660.00;;;9.81;69.16
10135;BME280;5107;48.850;8.924;2023-02-12T13:41:19;98660.31;;;10.12;68.28
10135;BME280;5107;48.850;8.924;2023-02-12T13:44:00;98655.44;;;10.41;66.86
10135;BME280;5107;48.850;8.924;2023-02-12T13:46:41;98647.41;;;10.42;66.72
10135;BME280;5107;48.850;8.924;2023-02-12T13:49:24;98643.88;;;9.97;67.99
10135;BME280;5107;48.850;8.924;2023-02-12T13:52:03;98644.16;;;9.94;68.64
10135;BME280;5107;48.850;8.924;2023-02-12T13:54:48;98647.00;;;9.91;69.39